Terminal Aerodrome Forecast
Issued by NWS

Home | Current Version | Previous Version | Text Only | Print | Product List | Glossary On
Versions: 1 2 3 4 5 6 7 8 9 10 11 12 13 14 15 16 17 18 19 20 21 22 23 24 25 26 27
000
FTAK31 PANC 292054 AAB
TAFADU
TAF AMD
PADU 292054Z 2921/3018 08004KT 1/2SM FG OVC002
      TEMPO 2921/2922 2SM BR SCT002 BKN005
     FM292200 08005KT 2SM BR FEW002 BKN005
      TEMPO 2922/2924 5SM BR SCT005 BKN015
     FM300000 08006KT P6SM SCT005 BKN015
     FM300500 VRB03KT 6SM BR BKN005
     FM300900 VRB03KT 1SM BR OVC004
     FM301500 09005KT P6SM BKN008=

USA.gov is the U.S. government's official web portal to all federal, state and local government web resources and services.